sensor_id;sensor_type;location;lat;lon;timestamp;P1;durP1;ratioP1;P2;durP2;ratioP2
39698;SDS011;25372;50.582;12.250;2023-06-22T00:09:32;8.95;;;4.68;;
39698;SDS011;25372;50.582;12.250;2023-06-22T00:19:54;6.97;;;3.53;;
39698;SDS011;25372;50.582;12.250;2023-06-22T00:30:18;6.20;;;4.05;;
39698;SDS011;25372;50.582;12.250;2023-06-22T00:40:41;6.68;;;3.83;;
39698;SDS011;25372;50.582;12.250;2023-06-22T00:51:01;7.85;;;4.43;;
39698;SDS011;25372;50.582;12.250;2023-06-22T01:01:24;5.60;;;3.75;;
39698;SDS011;25372;50.582;12.250;2023-06-22T01:11:45;11.07;;;4.45;;
39698;SDS011;25372;50.582;12.250;2023-06-22T01:32:36;8.25;;;4.60;;
39698;SDS011;25372;50.582;12.250;2023-06-22T01:43:00;5.70;;;3.83;;
39698;SDS011;25372;50.582;12.250;2023-06-22T01:53:23;8.43;;;4.05;;
39698;SDS011;25372;50.582;12.250;2023-06-22T02:03:47;5.60;;;3.38;;
39698;SDS011;25372;50.582;12.250;2023-06-22T02:14:15;6.82;;;4.50;;
39698;SDS011;25372;50.582;12.250;2023-06-22T02:24:37;7.97;;;4.13;;
39698;SDS011;25372;50.582;12.250;2023-06-22T02:34:59;7.95;;;4.47;;
39698;SDS011;25372;50.582;12.250;2023-06-22T02:45:23;10.05;;;4.93;;
39698;SDS011;25372;50.582;12.250;2023-06-22T02:55:46;7.40;;;4.50;;
39698;SDS011;25372;50.582;12.250;2023-06-22T03:06:06;7.43;;;4.03;;
39698;SDS011;25372;50.582;12.250;2023-06-22T03:16:28;6.57;;;4.05;;
39698;SDS011;25372;50.582;12.250;2023-06-22T03:26:50;4.28;;;3.70;;
39698;SDS011;25372;50.582;12.250;2023-06-22T03:37:12;5.97;;;3.42;;
39698;SDS011;25372;50.582;12.250;2023-06-22T03:47:34;8.82;;;4.53;;
39698;SDS011;25372;50.582;12.250;2023-06-22T03:57:57;6.47;;;3.72;;
39698;SDS011;25372;50.582;12.250;2023-06-22T04:08:24;10.35;;;4.78;;
39698;SDS011;25372;50.582;12.250;2023-06-22T04:18:46;8.25;;;5.15;;
39698;SDS011;25372;50.582;12.250;2023-06-22T04:29:07;7.32;;;4.13;;
39698;SDS011;25372;50.582;12.250;2023-06-22T04:39:30;11.82;;;4.60;;
39698;SDS011;25372;50.582;12.250;2023-06-22T04:49:51;8.50;;;4.80;;
39698;SDS011;25372;50.582;12.250;2023-06-22T05:00:13;7.50;;;3.45;;
39698;SDS011;25372;50.582;12.250;2023-06-22T05:10:36;8.82;;;4.20;;
39698;SDS011;25372;50.582;12.250;2023-06-22T05:20:58;6.22;;;4.07;;
39698;SDS011;25372;50.582;12.250;2023-06-22T05:31:19;7.38;;;4.22;;
39698;SDS011;25372;50.582;12.250;2023-06-22T05:41:42;7.93;;;4.47;;
39698;SDS011;25372;50.582;12.250;2023-06-22T05:52:03;6.70;;;4.18;;
39698;SDS011;25372;50.582;12.250;2023-06-22T06:02:26;5.72;;;4.10;;
39698;SDS011;25372;50.582;12.250;2023-06-22T06:12:47;10.40;;;4.28;;
39698;SDS011;25372;50.582;12.250;2023-06-22T06:23:09;7.80;;;4.35;;
39698;SDS011;25372;50.582;12.250;2023-06-22T06:33:30;8.30;;;4.20;;
39698;SDS011;25372;50.582;12.250;2023-06-22T06:43:52;8.20;;;3.88;;
39698;SDS011;25372;50.582;12.250;2023-06-22T06:54:13;9.02;;;3.92;;
39698;SDS011;25372;50.582;12.250;2023-06-22T07:04:36;6.05;;;3.30;;
39698;SDS011;25372;50.582;12.250;2023-06-22T07:15:00;10.43;;;4.75;;
39698;SDS011;25372;50.582;12.250;2023-06-22T07:25:24;6.50;;;3.75;;
39698;SDS011;25372;50.582;12.250;2023-06-22T07:35:45;7.47;;;4.60;;
39698;SDS011;25372;50.582;12.250;2023-06-22T07:46:08;6.45;;;4.18;;
39698;SDS011;25372;50.582;12.250;2023-06-22T07:56:28;6.30;;;3.75;;
39698;SDS011;25372;50.582;12.250;2023-06-22T08:06:51;6.03;;;4.40;;
39698;SDS011;25372;50.582;12.250;2023-06-22T08:17:11;6.68;;;3.55;;
39698;SDS011;25372;50.582;12.250;2023-06-22T08:27:33;6.75;;;4.05;;
39698;SDS011;25372;50.582;12.250;2023-06-22T08:37:55;6.05;;;3.55;;
39698;SDS011;25372;50.582;12.250;2023-06-22T08:48:17;4.55;;;3.58;;
39698;SDS011;25372;50.582;12.250;2023-06-22T08:58:38;4.93;;;3.60;;
39698;SDS011;25372;50.582;12.250;2023-06-22T09:09:00;3.65;;;3.15;;
39698;SDS011;25372;50.582;12.250;2023-06-22T09:19:21;4.07;;;2.85;;
39698;SDS011;25372;50.582;12.250;2023-06-22T09:29:43;6.57;;;3.83;;
39698;SDS011;25372;50.582;12.250;2023-06-22T09:40:05;5.47;;;3.87;;
39698;SDS011;25372;50.582;12.250;2023-06-22T09:50:31;5.93;;;3.95;;
39698;SDS011;25372;50.582;12.250;2023-06-22T10:00:52;6.85;;;3.78;;
39698;SDS011;25372;50.582;12.250;2023-06-22T10:11:15;4.65;;;3.20;;
39698;SDS011;25372;50.582;12.250;2023-06-22T10:21:36;5.50;;;3.40;;
39698;SDS011;25372;50.582;12.250;2023-06-22T10:31:58;5.03;;;3.90;;
39698;SDS011;25372;50.582;12.250;2023-06-22T10:42:19;5.22;;;3.33;;
39698;SDS011;25372;50.582;12.250;2023-06-22T10:52:40;4.20;;;3.25;;
39698;SDS011;25372;50.582;12.250;2023-06-22T11:03:01;4.10;;;3.25;;
39698;SDS011;25372;50.582;12.250;2023-06-22T11:13:23;6.65;;;3.75;;
39698;SDS011;25372;50.582;12.250;2023-06-22T11:23:44;7.10;;;3.45;;
39698;SDS011;25372;50.582;12.250;2023-06-22T11:34:07;5.03;;;3.67;;
39698;SDS011;25372;50.582;12.250;2023-06-22T11:44:27;7.03;;;4.07;;
39698;SDS011;25372;50.582;12.250;2023-06-22T11:54:49;5.30;;;3.55;;
39698;SDS011;25372;50.582;12.250;2023-06-22T12:05:10;6.80;;;3.53;;
39698;SDS011;25372;50.582;12.250;2023-06-22T12:15:32;5.47;;;3.28;;
39698;SDS011;25372;50.582;12.250;2023-06-22T12:25:53;4.65;;;3.30;;
39698;SDS011;25372;50.582;12.250;2023-06-22T12:36:15;4.22;;;3.22;;
39698;SDS011;25372;50.582;12.250;2023-06-22T12:46:36;6.03;;;3.25;;
39698;SDS011;25372;50.582;12.250;2023-06-22T12:56:59;5.25;;;3.28;;
39698;SDS011;25372;50.582;12.250;2023-06-22T13:07:19;5.25;;;3.70;;
39698;SDS011;25372;50.582;12.250;2023-06-22T13:17:42;7.15;;;3.80;;
39698;SDS011;25372;50.582;12.250;2023-06-22T13:28:03;5.50;;;3.60;;
39698;SDS011;25372;50.582;12.250;2023-06-22T13:38:25;4.60;;;2.83;;
39698;SDS011;25372;50.582;12.250;2023-06-22T13:48:46;4.60;;;3.17;;
39698;SDS011;25372;50.582;12.250;2023-06-22T13:59:08;5.65;;;3.72;;
39698;SDS011;25372;50.582;12.250;2023-06-22T14:09:30;6.03;;;3.20;;
39698;SDS011;25372;50.582;12.250;2023-06-22T14:19:52;4.18;;;3.05;;
39698;SDS011;25372;50.582;12.250;2023-06-22T14:30:13;4.57;;;3.53;;
39698;SDS011;25372;50.582;12.250;2023-06-22T14:40:35;5.53;;;3.65;;
39698;SDS011;25372;50.582;12.250;2023-06-22T14:50:56;4.20;;;3.13;;
39698;SDS011;25372;50.582;12.250;2023-06-22T15:01:18;4.05;;;3.38;;
39698;SDS011;25372;50.582;12.250;2023-06-22T15:11:39;5.68;;;3.22;;
39698;SDS011;25372;50.582;12.250;2023-06-22T15:22:01;6.10;;;3.97;;
39698;SDS011;25372;50.582;12.250;2023-06-22T15:32:22;5.17;;;3.07;;
39698;SDS011;25372;50.582;12.250;2023-06-22T15:42:45;7.72;;;4.00;;
39698;SDS011;25372;50.582;12.250;2023-06-22T16:03:28;5.50;;;3.45;;
39698;SDS011;25372;50.582;12.250;2023-06-22T16:13:49;6.97;;;4.10;;
39698;SDS011;25372;50.582;12.250;2023-06-22T16:24:11;7.10;;;4.85;;
39698;SDS011;25372;50.582;12.250;2023-06-22T16:34:32;5.88;;;4.30;;
39698;SDS011;25372;50.582;12.250;2023-06-22T16:44:54;6.38;;;4.07;;
39698;SDS011;25372;50.582;12.250;2023-06-22T16:55:15;7.30;;;4.78;;
39698;SDS011;25372;50.582;12.250;2023-06-22T17:05:37;6.53;;;4.32;;
39698;SDS011;25372;50.582;12.250;2023-06-22T17:15:59;7.23;;;5.77;;
39698;SDS011;25372;50.582;12.250;2023-06-22T17:26:23;6.75;;;4.22;;
39698;SDS011;25372;50.582;12.250;2023-06-22T17:36:44;5.57;;;4.25;;
39698;SDS011;25372;50.582;12.250;2023-06-22T17:47:07;6.97;;;4.47;;
39698;SDS011;25372;50.582;12.250;2023-06-22T17:57:30;7.30;;;4.55;;
39698;SDS011;25372;50.582;12.250;2023-06-22T18:07:58;6.55;;;4.47;;
39698;SDS011;25372;50.582;12.250;2023-06-22T18:18:19;7.63;;;4.57;;
39698;SDS011;25372;50.582;12.250;2023-06-22T18:28:45;5.80;;;4.32;;
39698;SDS011;25372;50.582;12.250;2023-06-22T18:39:06;8.02;;;5.03;;
39698;SDS011;25372;50.582;12.250;2023-06-22T18:49:32;12.98;;;4.97;;
39698;SDS011;25372;50.582;12.250;2023-06-22T19:10:23;9.93;;;5.67;;
39698;SDS011;25372;50.582;12.250;2023-06-22T19:20:46;7.18;;;5.32;;
39698;SDS011;25372;50.582;12.250;2023-06-22T19:31:08;7.00;;;5.32;;
39698;SDS011;25372;50.582;12.250;2023-06-22T19:41:29;8.90;;;5.50;;
39698;SDS011;25372;50.582;12.250;2023-06-22T19:51:51;8.13;;;5.13;;
39698;SDS011;25372;50.582;12.250;2023-06-22T20:02:12;6.57;;;4.45;;
39698;SDS011;25372;50.582;12.250;2023-06-22T20:12:34;10.18;;;6.13;;
39698;SDS011;25372;50.582;12.250;2023-06-22T20:22:55;10.07;;;4.95;;
39698;SDS011;25372;50.582;12.250;2023-06-22T20:33:20;8.55;;;5.13;;
39698;SDS011;25372;50.582;12.250;2023-06-22T20:43:40;6.32;;;4.13;;
39698;SDS011;25372;50.582;12.250;2023-06-22T20:54:03;7.40;;;4.80;;
39698;SDS011;25372;50.582;12.250;2023-06-22T21:04:24;8.00;;;4.97;;
39698;SDS011;25372;50.582;12.250;2023-06-22T21:14:46;8.15;;;5.38;;
39698;SDS011;25372;50.582;12.250;2023-06-22T21:25:09;9.20;;;5.33;;
39698;SDS011;25372;50.582;12.250;2023-06-22T21:35:32;8.85;;;5.55;;
39698;SDS011;25372;50.582;12.250;2023-06-22T21:45:53;11.75;;;6.15;;
39698;SDS011;25372;50.582;12.250;2023-06-22T21:56:15;10.27;;;6.28;;
39698;SDS011;25372;50.582;12.250;2023-06-22T22:06:36;12.88;;;7.88;;
39698;SDS011;25372;50.582;12.250;2023-06-22T22:16:58;9.50;;;7.18;;
39698;SDS011;25372;50.582;12.250;2023-06-22T22:27:20;13.20;;;7.63;;
39698;SDS011;25372;50.582;12.250;2023-06-22T22:37:42;14.93;;;7.97;;
39698;SDS011;25372;50.582;12.250;2023-06-22T22:48:03;15.93;;;8.63;;
39698;SDS011;25372;50.582;12.250;2023-06-22T22:58:27;12.80;;;6.22;;
39698;SDS011;25372;50.582;12.250;2023-06-22T23:08:47;4.18;;;2.70;;
39698;SDS011;25372;50.582;12.250;2023-06-22T23:19:16;3.63;;;1.10;;
39698;SDS011;25372;50.582;12.250;2023-06-22T23:29:37;1.05;;;0.68;;
39698;SDS011;25372;50.582;12.250;2023-06-22T23:39:59;1.67;;;0.47;;
39698;SDS011;25372;50.582;12.250;2023-06-22T23:50:20;1.85;;;0.77;;
